Time;durP1;ratioP1;P1;durP2;ratioP2;P2;SDS_P1;SDS_P2;PMS_P1;PMS_P2;Temp;Humidity;BMP_temperature;BMP_pressure;BME280_temperature;BME280_humidity;BME280_pressure;Samples;Min_cycle;Max_cycle;Signal;HPM_P1;HPM_P2
2023/03/05 00:01:45;;;;;;;29.60;16.50;;;;;;;4.37;72.27;99040.34;4977890;28;102670;-62
2023/03/05 00:04:14;;;;;;;22.47;13.63;;;;;;;4.50;71.36;99036.28;4978170;28;103309;-62
2023/03/05 00:06:42;;;;;;;23.77;15.13;;;;;;;4.54;71.90;99040.50;4974614;28;103999;-62
2023/03/05 00:09:12;;;;;;;31.13;16.53;;;;;;;4.45;71.79;99039.13;4972853;28;103354;-62
2023/03/05 00:11:40;;;;;;;23.83;15.70;;;;;;;4.50;71.85;99033.69;4976720;28;102901;-62
2023/03/05 00:14:10;;;;;;;27.30;14.43;;;;;;;4.60;70.77;99037.63;4978578;28;103137;-62
2023/03/05 00:16:39;;;;;;;25.73;14.50;;;;;;;4.54;71.46;99040.50;4976417;28;103658;-61
2023/03/05 00:19:07;;;;;;;22.87;13.90;;;;;;;4.41;71.71;99037.53;4976802;28;103249;-62
2023/03/05 00:21:39;;;;;;;26.37;15.20;;;;;;;4.45;71.94;99040.88;4976123;28;102734;-62
2023/03/05 00:24:11;;;;;;;28.00;15.33;;;;;;;4.47;72.07;99037.28;4974012;28;102631;-62
2023/03/05 00:26:41;;;;;;;23.93;13.70;;;;;;;4.54;71.70;99030.03;4975726;28;103248;-62
2023/03/05 00:29:12;;;;;;;20.67;12.27;;;;;;;4.66;71.66;99026.84;4976800;28;103012;-62
2023/03/05 00:31:43;;;;;;;24.10;12.70;;;;;;;4.67;71.38;99023.34;4976272;28;102783;-62
2023/03/05 00:34:14;;;;;;;18.57;11.60;;;;;;;4.73;71.59;99023.06;4973033;28;102972;-62
2023/03/05 00:36:46;;;;;;;17.13;11.37;;;;;;;4.79;71.14;99028.06;4974231;28;103201;-62
2023/03/05 00:39:16;;;;;;;23.30;13.93;;;;;;;4.83;71.29;99020.91;4993454;28;103217;-62
2023/03/05 00:41:45;;;;;;;20.10;12.33;;;;;;;4.80;71.52;99013.19;4971740;28;102640;-62
2023/03/05 00:44:13;;;;;;;25.87;15.53;;;;;;;4.67;72.02;99023.34;4973725;28;103541;-62
2023/03/05 00:46:42;;;;;;;23.03;13.00;;;;;;;4.75;71.78;99023.84;4972625;28;103516;-62
2023/03/05 00:49:10;;;;;;;20.93;12.67;;;;;;;4.78;72.08;99023.72;4969110;28;103277;-62
2023/03/05 00:51:38;;;;;;;20.93;12.07;;;;;;;4.83;71.95;99013.06;4975597;28;103270;-62
2023/03/05 00:54:06;;;;;;;24.63;14.33;;;;;;;4.83;71.74;99013.88;4976948;28;102630;-62
2023/03/05 00:56:34;;;;;;;21.47;11.67;;;;;;;4.72;72.87;99013.50;4975106;28;104341;-62
2023/03/05 00:59:04;;;;;;;19.03;11.30;;;;;;;4.81;72.80;99009.66;4968768;28;103178;-62
2023/03/05 01:01:32;;;;;;;24.63;13.93;;;;;;;4.84;73.21;99009.50;4971944;28;102738;-62
2023/03/05 01:04:02;;;;;;;24.27;12.37;;;;;;;4.92;72.73;99008.25;4996598;28;104213;-60
2023/03/05 01:06:30;;;;;;;24.47;14.27;;;;;;;4.73;73.01;99004.75;4972377;28;103296;-60
2023/03/05 01:08:58;;;;;;;26.67;15.23;;;;;;;4.70;72.81;98997.03;4975082;28;104263;-60
2023/03/05 01:11:27;;;;;;;20.37;12.37;;;;;;;4.85;72.33;98999.00;4971814;28;103042;-61
2023/03/05 01:13:55;;;;;;;24.00;13.87;;;;;;;4.80;72.60;98993.09;4974979;28;104632;-60
2023/03/05 01:16:25;;;;;;;20.97;12.87;;;;;;;4.83;72.30;98987.72;4975076;28;104090;-60
2023/03/05 01:18:53;;;;;;;23.60;16.03;;;;;;;4.75;72.88;98992.44;4976553;28;103330;-60
2023/03/05 01:21:22;;;;;;;31.80;17.10;;;;;;;4.61;73.78;98986.97;4970225;28;102799;-60
2023/03/05 01:23:50;;;;;;;27.33;15.93;;;;;;;4.63;73.54;98990.38;4977101;28;102692;-61
2023/03/05 01:26:18;;;;;;;21.77;14.60;;;;;;;4.43;73.76;98987.78;4972923;28;103837;-60
2023/03/05 01:28:46;;;;;;;26.90;14.10;;;;;;;4.41;74.41;98985.22;4990560;28;103203;-60
2023/03/05 01:31:14;;;;;;;26.50;14.37;;;;;;;4.51;73.68;98980.44;4974651;28;102662;-60
2023/03/05 01:33:43;;;;;;;23.77;14.10;;;;;;;4.46;73.71;98988.47;4972473;28;102857;-60
2023/03/05 01:36:14;;;;;;;21.93;15.43;;;;;;;4.53;73.88;98979.44;4972648;28;103271;-60
2023/03/05 01:38:43;;;;;;;25.00;14.13;;;;;;;4.68;73.00;98968.31;4974800;28;103355;-60
2023/03/05 01:41:13;;;;;;;27.63;16.03;;;;;;;4.75;72.67;98968.88;4972390;28;102623;-60
2023/03/05 01:43:42;;;;;;;20.77;12.53;;;;;;;4.74;73.40;98966.34;4972912;28;103870;-60
2023/03/05 01:46:25;;;;;;;22.97;14.93;;;;;;;4.76;73.41;98961.88;4972608;28;103269;-60
2023/03/05 01:49:01;;;;;;;22.77;14.43;;;;;;;4.75;73.62;98960.16;4973518;28;104190;-60
2023/03/05 01:51:35;;;;;;;23.83;14.40;;;;;;;4.73;73.84;98959.41;4970588;28;102744;-60
2023/03/05 01:54:04;;;;;;;22.03;12.70;;;;;;;4.76;74.21;98960.13;4976498;28;103773;-60
2023/03/05 01:56:33;;;;;;;22.47;11.97;;;;;;;4.81;74.10;98950.28;4972305;28;104053;-60
2023/03/05 01:59:03;;;;;;;21.23;11.93;;;;;;;4.85;74.18;98944.00;4974557;28;103219;-61
2023/03/05 02:01:36;;;;;;;21.77;13.13;;;;;;;4.77;73.71;98946.13;4972438;28;102580;-60
2023/03/05 02:04:08;;;;;;;25.33;13.27;;;;;;;4.78;73.45;98947.81;4975452;28;102732;-60
2023/03/05 02:06:38;;;;;;;22.27;11.53;;;;;;;4.82;73.68;98941.53;4994515;28;103299;-60
2023/03/05 02:09:06;;;;;;;23.17;13.83;;;;;;;4.82;74.16;98941.53;4975585;28;103208;-60
2023/03/05 02:11:35;;;;;;;21.93;11.97;;;;;;;4.88;74.15;98933.41;4975071;28;102631;-60
2023/03/05 02:14:05;;;;;;;24.57;14.30;;;;;;;4.75;73.99;98939.22;4977961;28;104426;-60
2023/03/05 02:16:38;;;;;;;18.43;10.90;;;;;;;4.83;74.82;98934.53;4976562;28;103291;-60
2023/03/05 02:19:10;;;;;;;18.13;9.90;;;;;;;4.88;75.08;98928.16;4974353;28;103196;-61
2023/03/05 02:21:41;;;;;;;22.97;13.17;;;;;;;4.93;74.54;98920.94;4978317;28;102713;-60
2023/03/05 02:24:14;;;;;;;22.87;13.30;;;;;;;4.84;74.77;98926.59;4974842;28;102963;-60
2023/03/05 02:26:43;;;;;;;24.23;13.53;;;;;;;4.69;74.56;98922.03;4966746;28;103343;-60
2023/03/05 02:29:15;;;;;;;25.87;13.57;;;;;;;4.64;74.85;98924.88;4969957;28;103175;-60
2023/03/05 02:31:45;;;;;;;18.53;11.30;;;;;;;4.56;75.72;98927.00;4975599;28;102841;-60
2023/03/05 02:34:14;;;;;;;24.13;12.93;;;;;;;4.52;74.70;98924.59;4975052;28;102775;-60
2023/03/05 02:36:43;;;;;;;20.33;12.40;;;;;;;4.58;75.16;98924.28;4975698;28;103352;-60
2023/03/05 02:39:12;;;;;;;21.40;12.73;;;;;;;4.70;75.36;98918.50;4971989;28;103268;-60
2023/03/05 02:41:40;;;;;;;20.50;12.50;;;;;;;4.74;75.23;98914.00;4973270;28;102702;-60
2023/03/05 02:44:09;;;;;;;24.17;14.07;;;;;;;4.35;75.62;98914.84;4978119;28;102941;-60
2023/03/05 02:46:37;;;;;;;19.77;11.83;;;;;;;4.62;75.57;98912.78;4976546;28;104165;-60
2023/03/05 02:49:05;;;;;;;23.07;12.67;;;;;;;4.62;74.68;98911.00;4975236;28;103415;-60
2023/03/05 02:51:33;;;;;;;20.43;13.10;;;;;;;4.42;74.87;98910.19;4976668;28;102619;-60
2023/03/05 02:54:04;;;;;;;21.87;11.63;;;;;;;4.51;75.32;98902.81;4978405;28;102993;-60
2023/03/05 02:56:32;;;;;;;22.43;12.83;;;;;;;4.41;76.00;98900.63;4972265;28;104717;-60
2023/03/05 02:59:01;;;;;;;17.43;10.77;;;;;;;4.63;75.33;98897.00;4975770;28;103212;-61
2023/03/05 03:01:29;;;;;;;23.23;11.23;;;;;;;4.64;75.37;98897.84;4972558;28;102774;-60
2023/03/05 03:03:58;;;;;;;22.90;12.37;;;;;;;4.75;74.80;98890.34;4977590;28;103762;-60
2023/03/05 03:06:28;;;;;;;17.60;9.73;;;;;;;4.82;74.64;98886.56;4989694;28;103301;-60
2023/03/05 03:08:57;;;;;;;23.97;12.50;;;;;;;4.86;75.02;98887.22;4997370;28;103189;-60
2023/03/05 03:11:27;;;;;;;20.73;12.50;;;;;;;4.76;75.17;98881.59;4977488;28;102848;-60
2023/03/05 03:13:55;;;;;;;22.63;12.47;;;;;;;4.84;75.25;98886.47;4975336;28;102847;-60
2023/03/05 03:16:23;;;;;;;19.43;10.43;;;;;;;4.80;75.59;98882.31;4977413;28;103348;-60
2023/03/05 03:18:51;;;;;;;18.80;11.03;;;;;;;4.81;74.75;98871.75;4978828;28;103229;-60
2023/03/05 03:21:22;;;;;;;20.97;11.00;;;;;;;4.80;75.62;98870.03;4977589;28;102767;-60
2023/03/05 03:23:50;;;;;;;20.30;10.07;;;;;;;4.66;75.99;98875.06;4977176;28;102634;-60
2023/03/05 03:26:19;;;;;;;14.27;8.70;;;;;;;4.75;75.63;98874.66;4975243;28;103222;-60
2023/03/05 03:28:49;;;;;;;16.57;8.83;;;;;;;4.86;75.82;98876.75;4979256;28;103016;-60
2023/03/05 03:31:16;;;;;;;17.03;9.53;;;;;;;4.94;75.46;98870.25;4974644;28;102633;-60
2023/03/05 03:33:45;;;;;;;17.20;9.90;;;;;;;4.99;75.23;98868.28;4978236;28;102570;-60
2023/03/05 03:36:13;;;;;;;17.80;9.83;;;;;;;5.05;75.20;98862.75;4974842;28;103221;-60
2023/03/05 03:38:43;;;;;;;18.20;9.60;;;;;;;5.06;74.84;98861.81;4976010;28;103226;-60
2023/03/05 03:41:11;;;;;;;17.13;9.20;;;;;;;5.07;74.97;98857.44;4979734;28;102671;-60
2023/03/05 03:43:39;;;;;;;20.83;11.63;;;;;;;5.07;75.13;98854.81;4977788;28;103530;-60
2023/03/05 03:46:09;;;;;;;15.57;9.87;;;;;;;4.96;75.47;98852.72;4974728;28;103365;-60
2023/03/05 03:48:39;;;;;;;16.40;9.40;;;;;;;4.99;75.73;98849.97;4979231;28;103276;-61
2023/03/05 03:51:07;;;;;;;16.90;9.80;;;;;;;4.93;75.54;98847.63;4982015;28;102650;-61
2023/03/05 03:53:35;;;;;;;15.60;9.40;;;;;;;4.92;76.24;98847.69;4975532;28;102815;-60
2023/03/05 03:56:04;;;;;;;20.20;10.40;;;;;;;4.91;76.45;98852.06;4975977;28;103225;-60
2023/03/05 03:58:32;;;;;;;13.47;7.40;;;;;;;4.86;76.47;98837.50;4977953;28;103248;-60
2023/03/05 04:01:00;;;;;;;13.27;7.47;;;;;;;4.98;76.13;98839.53;4973637;28;102554;-60
2023/03/05 04:03:30;;;;;;;14.83;7.27;;;;;;;5.00;76.40;98840.31;4977915;28;102641;-60
2023/03/05 04:05:58;;;;;;;14.73;8.23;;;;;;;4.89;76.51;98843.44;4973835;28;103213;-60
2023/03/05 04:08:28;;;;;;;13.00;6.70;;;;;;;4.97;76.19;98830.84;4975778;28;103911;-60
2023/03/05 04:10:56;;;;;;;13.90;7.10;;;;;;;4.97;76.10;98843.94;4978052;28;103365;-60
2023/03/05 04:13:24;;;;;;;16.33;7.67;;;;;;;4.90;76.45;98837.31;4978832;28;102712;-60
2023/03/05 04:15:52;;;;;;;15.60;7.87;;;;;;;4.98;76.07;98834.31;4971811;28;103682;-60
2023/03/05 04:18:21;;;;;;;15.53;8.73;;;;;;;4.77;77.29;98836.19;4976433;28;104105;-62
2023/03/05 04:20:53;;;;;;;14.80;8.10;;;;;;;4.89;77.21;98834.75;4975069;28;103022;-61
2023/03/05 04:23:21;;;;;;;12.97;6.43;;;;;;;4.94;76.94;98833.59;4972684;28;102769;-60
2023/03/05 04:25:49;;;;;;;15.33;6.87;;;;;;;4.99;76.89;98829.00;4976086;28;103357;-61
2023/03/05 04:28:17;;;;;;;18.03;9.60;;;;;;;5.03;76.18;98825.31;4975295;28;103212;-60
2023/03/05 04:30:46;;;;;;;13.33;7.33;;;;;;;5.19;75.59;98825.44;4977471;28;102642;-60
2023/03/05 04:33:14;;;;;;;16.33;8.50;;;;;;;4.84;76.47;98829.72;4976459;28;104892;-60
2023/03/05 04:35:42;;;;;;;12.03;6.63;;;;;;;4.96;76.72;98821.31;4974486;28;103286;-60
2023/03/05 04:38:11;;;;;;;15.37;8.07;;;;;;;4.90;76.37;98811.13;4972448;28;103242;-60
2023/03/05 04:40:39;;;;;;;10.70;6.37;;;;;;;4.98;76.11;98819.44;4977702;28;102701;-60
2023/03/05 04:43:07;;;;;;;15.10;7.90;;;;;;;4.93;76.35;98823.22;4977697;28;102731;-60
2023/03/05 04:45:35;;;;;;;14.30;7.73;;;;;;;4.86;76.63;98822.63;4969931;28;103977;-60
2023/03/05 04:48:04;;;;;;;14.70;8.23;;;;;;;4.82;76.43;98810.63;4977041;28;103349;-60
2023/03/05 04:50:32;;;;;;;16.33;7.80;;;;;;;4.85;76.05;98813.13;4975389;28;103665;-60
2023/03/05 04:53:00;;;;;;;12.90;6.50;;;;;;;4.89;76.32;98809.41;4977581;28;103066;-61
2023/03/05 04:55:30;;;;;;;17.37;9.07;;;;;;;4.87;75.78;98813.88;4974404;28;103412;-60
2023/03/05 04:57:58;;;;;;;9.97;5.77;;;;;;;4.89;76.22;98813.78;4967987;28;103184;-60
2023/03/05 05:00:26;;;;;;;12.10;6.87;;;;;;;4.88;76.35;98812.97;4973783;28;102851;-60
2023/03/05 05:02:54;;;;;;;16.27;8.67;;;;;;;4.85;75.95;98813.13;4976081;28;102743;-61
2023/03/05 05:05:24;;;;;;;12.20;7.47;;;;;;;4.77;76.53;98804.78;4977396;28;104096;-61
2023/03/05 05:07:56;;;;;;;11.87;7.07;;;;;;;4.77;76.88;98807.41;4975937;28;103246;-60
2023/03/05 05:10:25;;;;;;;13.03;6.80;;;;;;;4.68;77.16;98805.19;4972986;28;102699;-60
2023/03/05 05:12:54;;;;;;;17.17;8.90;;;;;;;4.76;76.71;98805.69;4969495;28;103759;-60
2023/03/05 05:15:22;;;;;;;22.67;10.50;;;;;;;4.72;76.17;98805.88;4974912;28;103333;-60
2023/03/05 05:17:51;;;;;;;17.33;10.00;;;;;;;4.47;77.02;98803.56;4975621;28;103075;-60
2023/03/05 05:20:19;;;;;;;16.50;9.03;;;;;;;4.53;77.25;98801.53;4974285;28;103243;-60
2023/03/05 05:22:47;;;;;;;16.63;9.40;;;;;;;4.58;77.19;98806.53;4975620;28;102686;-61
2023/03/05 05:25:17;;;;;;;16.83;8.30;;;;;;;4.66;76.57;98801.78;4973046;28;104017;-60
2023/03/05 05:27:45;;;;;;;20.90;9.87;;;;;;;4.59;76.68;98800.38;4975097;28;103191;-60
2023/03/05 05:30:15;;;;;;;14.67;8.07;;;;;;;4.59;76.52;98796.00;4975088;28;102649;-60
2023/03/05 05:32:43;;;;;;;16.67;8.30;;;;;;;4.63;75.87;98801.97;4971960;28;103051;-60
2023/03/05 05:35:11;;;;;;;18.47;9.57;;;;;;;4.69;76.12;98807.72;4973477;28;103281;-60
2023/03/05 05:37:39;;;;;;;17.33;9.53;;;;;;;4.72;75.53;98806.75;4975812;28;103286;-60
2023/03/05 05:40:09;;;;;;;18.10;9.73;;;;;;;4.66;75.32;98807.03;4974496;28;102634;-60
2023/03/05 05:42:37;;;;;;;15.83;7.67;;;;;;;4.74;75.58;98799.69;4975746;28;104119;-60
2023/03/05 05:45:06;;;;;;;15.80;8.43;;;;;;;4.68;76.18;98805.19;4976015;28;103290;-60
2023/03/05 05:47:36;;;;;;;15.23;9.00;;;;;;;4.71;74.98;98797.22;4977468;28;103216;-60
2023/03/05 05:50:04;;;;;;;18.37;8.80;;;;;;;4.64;75.47;98803.63;4975945;28;102838;-60
2023/03/05 05:52:32;;;;;;;16.77;8.87;;;;;;;4.68;75.63;98805.19;4976954;28;102751;-60
2023/03/05 05:55:00;;;;;;;18.17;10.30;;;;;;;4.69;75.71;98807.72;4975981;28;103279;-60
2023/03/05 05:57:28;;;;;;;16.80;9.43;;;;;;;4.60;75.88;98802.09;5002470;28;103217;-60
2023/03/05 05:59:56;;;;;;;14.27;8.17;;;;;;;4.72;75.49;98801.50;4977506;28;102920;-60
2023/03/05 06:02:23;;;;;;;13.87;7.93;;;;;;;4.73;75.18;98803.22;4976021;28;102802;-60
2023/03/05 06:04:53;;;;;;;17.37;9.47;;;;;;;4.73;75.21;98799.75;4978125;28;104872;-60
2023/03/05 06:07:22;;;;;;;16.37;8.70;;;;;;;4.74;75.34;98807.53;4974734;28;103258;-60
2023/03/05 06:09:51;;;;;;;14.87;7.67;;;;;;;4.67;75.40;98800.88;4974778;28;102635;-60
2023/03/05 06:12:19;;;;;;;13.63;7.40;;;;;;;4.75;75.59;98811.81;4977948;28;102961;-60
2023/03/05 06:14:50;;;;;;;15.47;9.17;;;;;;;4.65;75.86;98811.44;4979067;28;103953;-60
2023/03/05 06:17:20;;;;;;;20.67;10.43;;;;;;;4.60;75.39;98802.91;4977084;28;103268;-60
2023/03/05 06:19:59;;;;;;;16.80;9.33;;;;;;;4.73;75.70;98803.22;4977143;28;102555;-60
2023/03/05 06:22:27;;;;;;;15.97;9.57;;;;;;;4.71;75.63;98805.06;4969259;28;102799;-60
2023/03/05 06:24:55;;;;;;;16.57;9.67;;;;;;;4.67;75.33;98803.50;4974819;28;104583;-60
2023/03/05 06:27:25;;;;;;;18.43;9.57;;;;;;;4.66;75.29;98801.78;4974907;28;103199;-60
2023/03/05 06:29:55;;;;;;;13.37;8.13;;;;;;;4.76;75.77;98797.84;4972985;28;102715;-60
2023/03/05 06:32:24;;;;;;;18.67;9.17;;;;;;;4.75;75.77;98801.34;4975239;28;103042;-60
2023/03/05 06:34:55;;;;;;;19.30;9.80;;;;;;;4.73;75.95;98808.44;4973812;28;103268;-60
2023/03/05 06:37:27;;;;;;;16.17;9.00;;;;;;;4.72;75.84;98796.28;4975211;28;104696;-60
2023/03/05 06:39:55;;;;;;;15.50;8.70;;;;;;;4.77;76.03;98796.94;4972975;28;102617;-60
2023/03/05 06:42:22;;;;;;;18.43;8.50;;;;;;;4.77;75.71;98794.31;4974233;28;102700;-60
2023/03/05 06:44:50;;;;;;;17.07;8.73;;;;;;;4.82;75.56;98796.69;4973293;28;103192;-60
2023/03/05 06:47:18;;;;;;;14.40;9.03;;;;;;;4.86;75.16;98793.84;4976839;28;103260;-60
2023/03/05 06:49:46;;;;;;;15.50;8.23;;;;;;;5.03;75.06;98796.50;4974329;28;102793;-60
2023/03/05 06:52:15;;;;;;;18.80;8.73;;;;;;;4.97;75.22;98796.78;4971809;28;103998;-60
2023/03/05 06:54:44;;;;;;;14.77;8.70;;;;;;;4.90;75.69;98798.03;4969449;28;103198;-60
2023/03/05 06:57:12;;;;;;;17.03;8.07;;;;;;;4.85;76.23;98791.31;4966164;28;103323;-60
2023/03/05 06:59:41;;;;;;;16.83;8.80;;;;;;;4.84;75.54;98795.69;4980059;28;102695;-60
2023/03/05 07:02:12;;;;;;;12.00;7.57;;;;;;;4.89;75.89;98792.84;4973181;28;102906;-60
2023/03/05 07:04:40;;;;;;;16.57;8.93;;;;;;;4.88;75.98;98789.41;4975305;28;103252;-60
2023/03/05 07:07:08;;;;;;;17.53;9.70;;;;;;;4.90;75.47;98789.31;5000630;28;103258;-60
2023/03/05 07:09:41;;;;;;;18.40;11.70;;;;;;;4.87;74.76;98795.56;4982282;28;102597;-60
2023/03/05 07:12:12;;;;;;;18.03;9.07;;;;;;;5.44;73.91;98785.78;4980345;28;103494;-60
2023/03/05 07:14:40;;;;;;;20.53;10.70;;;;;;;5.17;73.88;98786.22;4984752;28;103210;-60
2023/03/05 07:17:09;;;;;;;21.07;9.40;;;;;;;5.06;74.70;98780.66;4979432;28;104470;-60
2023/03/05 07:19:38;;;;;;;14.40;9.50;;;;;;;5.07;75.00;98784.97;4982026;28;102629;-60
2023/03/05 07:22:07;;;;;;;17.70;10.90;;;;;;;4.94;75.24;98781.22;4975448;28;102744;-60
2023/03/05 07:24:35;;;;;;;17.30;9.97;;;;;;;5.01;74.67;98782.66;4978560;28;102972;-61
2023/03/05 07:27:03;;;;;;;19.53;11.13;;;;;;;5.03;74.52;98786.03;4973183;28;103079;-61
2023/03/05 07:29:35;;;;;;;18.43;9.77;;;;;;;5.10;74.26;98787.44;4969110;28;102974;-61
2023/03/05 07:32:05;;;;;;;19.10;11.37;;;;;;;5.08;73.98;98785.81;4971429;28;103119;-60
2023/03/05 07:34:34;;;;;;;17.43;9.27;;;;;;;5.19;74.33;98786.97;4964229;28;103146;-61
2023/03/05 07:37:08;;;;;;;17.17;9.50;;;;;;;5.11;74.69;98783.88;4962592;28;103258;-61
2023/03/05 07:39:45;;;;;;;18.50;10.23;;;;;;;5.25;74.34;98775.34;4967679;28;103067;-61
2023/03/05 07:42:25;;;;;;;15.33;9.17;;;;;;;5.20;74.31;98775.59;4971241;28;102699;-61
2023/03/05 07:45:21;;;;;;;16.77;9.97;;;;;;;5.25;74.19;98776.19;4981070;28;103837;-61
2023/03/05 07:47:54;;;;;;;18.13;9.30;;;;;;;5.32;73.92;98775.91;4969395;28;103013;-58
2023/03/05 07:50:34;;;;;;;17.77;10.37;;;;;;;5.32;73.19;98778.50;4966579;28;103494;-57
2023/03/05 07:53:12;;;;;;;16.23;9.27;;;;;;;5.84;72.53;98769.69;4967021;28;102989;-58
2023/03/05 07:55:55;;;;;;;20.97;10.63;;;;;;;5.23;73.36;98780.66;4967427;28;102973;-58
2023/03/05 07:58:29;;;;;;;17.70;9.43;;;;;;;5.23;74.49;98772.81;4988430;28;102967;-57
2023/03/05 08:00:59;;;;;;;15.17;8.97;;;;;;;5.35;73.89;98770.50;4966911;28;102704;-57
2023/03/05 08:03:27;;;;;;;17.57;11.03;;;;;;;5.41;73.54;98770.19;4972660;28;102912;-58
2023/03/05 08:06:43;;;;;;;14.43;9.10;;;;;;;5.47;73.29;98775.13;4969961;28;103220;-57
2023/03/05 08:09:10;;;;;;;19.63;11.33;;;;;;;5.41;73.35;98775.44;4978036;28;103214;-57
2023/03/05 08:11:39;;;;;;;16.93;10.43;;;;;;;5.54;73.10;98772.13;4974287;28;102753;-56
2023/03/05 08:14:07;;;;;;;16.47;9.23;;;;;;;5.61;72.87;98773.53;4979468;28;103869;-57
2023/03/05 08:16:39;;;;;;;16.97;10.43;;;;;;;5.59;72.64;98769.25;4977300;28;103351;-57
2023/03/05 08:19:07;;;;;;;19.07;10.40;;;;;;;6.24;70.05;98766.69;4976521;28;103902;-56
2023/03/05 08:21:36;;;;;;;18.27;9.83;;;;;;;6.23;69.93;98767.63;4974703;28;103933;-57
2023/03/05 08:24:06;;;;;;;16.47;8.73;;;;;;;6.24;70.41;98764.06;4979120;28;104372;-57
2023/03/05 08:26:37;;;;;;;19.57;10.17;;;;;;;6.32;69.41;98761.88;4974126;28;103284;-56
2023/03/05 08:29:05;;;;;;;22.03;9.77;;;;;;;6.41;68.94;98761.38;4975229;28;104116;-56
2023/03/05 08:31:34;;;;;;;18.10;10.77;;;;;;;6.11;69.54;98763.03;4977168;28;102589;-56
2023/03/05 08:34:06;;;;;;;17.83;10.93;;;;;;;6.07;69.69;98766.75;4977769;28;103073;-56
2023/03/05 08:36:34;;;;;;;20.17;11.80;;;;;;;5.68;71.36;98759.16;4978146;28;103262;-56
2023/03/05 08:39:02;;;;;;;21.17;11.40;;;;;;;5.57;72.31;98755.38;4975653;28;104558;-56
2023/03/05 08:41:30;;;;;;;22.73;11.03;;;;;;;5.10;73.35;98766.50;4973906;28;102893;-57
2023/03/05 08:44:01;;;;;;;19.10;10.17;;;;;;;5.03;75.00;98759.00;4976866;28;103667;-57
2023/03/05 08:46:29;;;;;;;20.67;10.77;;;;;;;4.96;74.53;98763.69;4975962;28;103265;-57
2023/03/05 08:48:57;;;;;;;21.30;10.73;;;;;;;4.74;74.42;98760.44;4976317;28;103221;-56
2023/03/05 08:51:27;;;;;;;18.23;8.70;;;;;;;5.24;74.47;98757.94;4976656;28;103931;-57
2023/03/05 08:53:58;;;;;;;19.00;10.30;;;;;;;4.89;73.66;98756.19;4975851;28;102757;-56
2023/03/05 08:56:30;;;;;;;20.80;10.43;;;;;;;4.99;73.87;98755.69;4975623;28;104139;-56
2023/03/05 08:58:58;;;;;;;20.77;9.37;;;;;;;5.09;73.95;98748.22;4974772;28;103219;-57
2023/03/05 09:01:26;;;;;;;15.07;7.57;;;;;;;5.32;73.66;98750.56;4977027;28;102640;-57
2023/03/05 09:03:54;;;;;;;17.63;8.47;;;;;;;5.66;72.80;98745.28;4976588;28;103996;-57
2023/03/05 09:06:22;;;;;;;17.10;10.00;;;;;;;5.76;71.29;98745.63;4977311;28;104451;-56
2023/03/05 09:08:52;;;;;;;17.80;10.63;;;;;;;5.28;72.09;98747.22;4975769;28;103800;-56
2023/03/05 09:11:21;;;;;;;19.13;10.00;;;;;;;5.47;71.75;98748.94;4975092;28;102725;-56
2023/03/05 09:13:49;;;;;;;16.67;8.20;;;;;;;5.72;71.68;98744.13;4977531;28;102668;-56
2023/03/05 09:16:19;;;;;;;19.90;10.27;;;;;;;5.76;71.23;98743.03;4977020;28;103208;-57
2023/03/05 09:18:47;;;;;;;16.00;10.43;;;;;;;5.95;70.52;98741.16;4975953;28;102985;-56
2023/03/05 09:21:17;;;;;;;19.87;10.40;;;;;;;5.68;70.26;98737.34;4974188;28;103128;-57
2023/03/05 09:23:46;;;;;;;17.50;9.80;;;;;;;5.52;71.15;98737.28;4974974;28;102812;-57
2023/03/05 09:26:19;;;;;;;17.03;10.83;;;;;;;5.77;70.25;98721.13;4976642;28;103174;-56
2023/03/05 09:28:48;;;;;;;19.97;10.00;;;;;;;5.90;70.71;98731.84;4976126;28;103463;-57
2023/03/05 09:31:16;;;;;;;17.97;9.63;;;;;;;6.07;70.12;98724.78;4972023;28;102608;-56
2023/03/05 09:33:48;;;;;;;18.53;10.23;;;;;;;6.15;69.29;98726.97;4973835;28;102580;-57
2023/03/05 09:36:19;;;;;;;16.90;10.17;;;;;;;6.34;69.63;98718.03;4976090;28;103411;-57
2023/03/05 09:38:47;;;;;;;17.80;10.30;;;;;;;6.26;69.42;98717.59;4974138;28;103323;-56
2023/03/05 09:41:24;;;;;;;19.60;10.53;;;;;;;6.25;69.61;98712.44;4968537;28;102723;-57
2023/03/05 09:44:03;;;;;;;18.43;9.63;;;;;;;6.37;68.65;98707.34;4973067;28;102923;-59
2023/03/05 09:46:42;;;;;;;18.53;9.87;;;;;;;6.29;68.23;98704.31;4969178;28;103496;-57
2023/03/05 09:49:17;;;;;;;16.73;9.90;;;;;;;6.24;68.74;98702.88;4968782;28;104174;-57
2023/03/05 09:51:55;;;;;;;18.00;9.43;;;;;;;6.37;68.32;98707.34;4968784;28;102764;-57
2023/03/05 09:54:29;;;;;;;22.63;9.93;;;;;;;6.15;68.16;98701.59;4967231;28;103150;-57
2023/03/05 09:57:04;;;;;;;19.70;10.13;;;;;;;5.71;69.47;98710.97;4967557;28;103765;-58
2023/03/05 09:59:40;;;;;;;18.43;9.87;;;;;;;6.13;69.34;98708.72;4969860;28;103246;-57
2023/03/05 10:02:17;;;;;;;17.90;10.87;;;;;;;6.35;68.46;98698.72;4966708;28;103010;-57
2023/03/05 10:04:50;;;;;;;16.93;9.80;;;;;;;6.40;69.19;98696.69;4974332;28;103170;-59
2023/03/05 10:07:24;;;;;;;18.60;11.03;;;;;;;6.27;68.48;98689.59;4964281;28;103315;-57
2023/03/05 10:09:57;;;;;;;16.47;10.53;;;;;;;5.98;69.34;98688.53;4972589;28;103284;-57
2023/03/05 10:12:41;;;;;;;16.23;10.43;;;;;;;5.57;70.34;98701.22;4970926;28;103048;-57
2023/03/05 10:15:12;;;;;;;21.20;10.80;;;;;;;5.79;69.49;98698.28;4968356;28;102994;-57
2023/03/05 10:18:10;;;;;;;17.27;10.70;;;;;;;5.49;70.50;98698.13;4951681;28;104053;-57
2023/03/05 10:20:51;;;;;;;18.03;10.30;;;;;;;5.55;70.83;98696.97;4928748;28;103650;-57
2023/03/05 10:23:37;;;;;;;19.43;10.27;;;;;;;5.44;71.79;98691.44;4946667;28;103513;-58
2023/03/05 10:26:21;;;;;;;15.70;9.93;;;;;;;5.57;71.57;98695.09;4968459;28;104270;-58
2023/03/05 10:29:02;;;;;;;20.53;10.87;;;;;;;5.17;72.29;98705.00;4966338;28;103207;-57
2023/03/05 10:31:49;;;;;;;22.17;11.60;;;;;;;5.22;72.74;98692.53;4971209;28;103275;-58
2023/03/05 10:34:32;;;;;;;21.57;11.40;;;;;;;5.55;71.65;98684.72;4976149;28;102989;-58
2023/03/05 10:37:12;;;;;;;20.73;11.90;;;;;;;5.08;72.91;98689.75;4978923;28;104473;-58
2023/03/05 10:39:51;;;;;;;18.90;11.20;;;;;;;5.66;71.39;98681.53;4975044;28;103266;-57
2023/03/05 10:42:28;;;;;;;21.10;12.93;;;;;;;5.30;72.25;98672.97;4979038;28;103187;-58
2023/03/05 10:45:01;;;;;;;21.03;12.27;;;;;;;5.32;72.08;98677.19;4978238;28;102847;-58
2023/03/05 10:47:37;;;;;;;21.03;13.23;;;;;;;5.36;72.50;98677.91;4975802;28;102680;-58
2023/03/05 10:50:16;;;;;;;21.20;12.03;;;;;;;5.55;72.14;98669.00;4975026;28;104113;-58
2023/03/05 10:52:50;;;;;;;24.63;13.37;;;;;;;5.30;72.26;98667.72;4973203;28;103296;-58
2023/03/05 10:55:35;;;;;;;22.83;13.17;;;;;;;5.21;72.55;98662.03;4968501;28;102786;-58
2023/03/05 10:58:18;;;;;;;35.70;19.10;;;;;;;5.18;73.37;98666.56;4972964;28;102747;-59
2023/03/05 11:01:22;;;;;;;21.53;13.03;;;;;;;5.28;73.12;98661.72;4965985;28;104239;-58
2023/03/05 11:04:30;;;;;;;20.87;13.10;;;;;;;5.48;71.57;98657.13;4972671;28;102894;-58
2023/03/05 11:07:29;;;;;;;21.60;12.27;;;;;;;5.57;71.63;98654.03;4996338;28;102674;-58
2023/03/05 11:10:20;;;;;;;20.00;12.23;;;;;;;5.68;71.27;98646.44;4974572;28;103708;-58
2023/03/05 11:12:50;;;;;;;24.10;12.83;;;;;;;5.61;71.18;98639.84;4974957;28;104269;-58
2023/03/05 11:15:29;;;;;;;24.23;13.10;;;;;;;5.73;71.25;98646.19;4974673;28;103052;-58
2023/03/05 11:18:25;;;;;;;21.40;12.70;;;;;;;5.72;71.97;98644.50;4975568;28;103163;-58
2023/03/05 11:21:09;;;;;;;17.97;11.10;;;;;;;5.67;71.06;98641.28;4961483;28;102724;-58
2023/03/05 11:23:38;;;;;;;22.23;14.33;;;;;;;5.27;71.88;98637.28;4974809;28;103273;-59
2023/03/05 11:29:24;;;;;;;20.43;12.43;;;;;;;5.15;72.45;98632.69;4973239;28;102663;-58
2023/03/05 11:32:24;;;;;;;22.97;13.60;;;;;;;5.52;71.71;98631.63;4964842;28;102768;-58
2023/03/05 11:35:33;;;;;;;19.30;12.10;;;;;;;5.57;71.38;98629.59;4969405;28;103070;-58
2023/03/05 11:38:18;;;;;;;21.97;11.33;;;;;;;5.77;69.93;98621.50;4969015;28;103083;-58
2023/03/05 11:40:55;;;;;;;18.33;10.90;;;;;;;5.59;70.04;98623.34;4968980;28;102791;-58
2023/03/05 11:43:47;;;;;;;16.93;11.03;;;;;;;5.76;69.64;98611.94;4967791;28;102715;-58
2023/03/05 11:46:27;;;;;;;18.13;10.40;;;;;;;5.92;68.27;98610.22;4995808;28;103027;-58